1897 Hurricane NOT_NAMED (1897243N13340)


IBTrACS version v04r00. Visit IBTrACS website for data access.
Please direct all questions to the IBTrACS Q and A forum

Storm track - Intensity - Wind Radii - Intensity Data - Source Data - All data

Summary Information

Storm ID 1897243N13340
Start Aug 30 12Z
Max Intensity 90 kt (Sep 7 12Z), 968 mb (Sep 7 12Z)
End Sep 10 18Z
ATCF IDs ,AL011897
Track status Best track data.

Storm track plot

Map of storm track

Intensity plots

Map of storm track

Radial wind information

No radial wind information for this storm


Position and Intensity Table

BASIN ISO_TIME_________ NATURE LAT LON WMO WIND USA WIND MLC WIND MLC PRES
degrees north degrees east kts kts kts mb
NA 1897-08-30 12:00:00 TS 12.50 -20.00 25
NA 15:00:00 TS 12.70 -20.51 25
NA 18:00:00 TS 12.90 -21.00 25
NA 21:00:00 TS 13.11 -21.46 27
NA 1897-08-31 00:00:00 TS 13.30 -21.90 30
NA 03:00:00 TS 13.46 -22.34 30
NA 06:00:00 TS 13.73 -23.20 35 35 30
NA 09:00:00 TS 13.84 -23.89 35 30
NA 12:00:00 TS 13.92 -24.52 35 35 30
NA 15:00:00 TS 14.03 -25.15 35 32
NA 18:00:00 TS 14.13 -25.73 35 35 35
NA 21:00:00 TS 14.22 -26.33 35 37
NA 1897-09-01 00:00:00 TS 14.30 -26.93 35 35 40
NA 03:00:00 TS 14.38 -27.51 37 45
NA 06:00:00 TS 14.47 -28.07 40 40 50 999
NA 09:00:00 TS 14.59 -28.62 47 50
NA 12:00:00 TS 14.73 -29.17 55 55 50
NA 15:00:00 TS 14.86 -29.73 60 52
NA 18:00:00 TS 15.00 -30.30 65 65 55
NA 21:00:00 TS 15.16 -30.85 67 55
NA 1897-09-02 00:00:00 TS 15.33 -31.40 70 70 55
NA 03:00:00 TS 15.50 -31.95 72 57
NA 06:00:00 TS 15.67 -32.50 75 75 60
NA 09:00:00 TS 15.81 -33.05 75 60
NA 12:00:00 TS 15.97 -33.60 75 75 60
NA 15:00:00 TS 16.16 -34.17 77 62
NA 18:00:00 TS 16.37 -34.73 80 80 65
NA 21:00:00 TS 16.56 -35.29 80 67
NA 1897-09-03 00:00:00 TS 16.77 -35.83 80 80 70
NA 03:00:00 TS 17.01 -36.38 82 72
NA 06:00:00 TS 17.27 -36.93 85 85 75
NA 09:00:00 TS 17.53 -37.47 85 75
NA 12:00:00 TS 17.80 -38.03 85 85 75
NA 15:00:00 TS 18.08 -38.66 85 75
NA 18:00:00 TS 18.37 -39.33 85 85 75
NA 21:00:00 TS 18.68 -40.01 85 75
NA 1897-09-04 00:00:00 TS 19.00 -40.70 85 85 75
NA 03:00:00 TS 19.31 -41.42 85 75
NA 06:00:00 TS 19.63 -42.13 85 85 75
NA 09:00:00 TS 19.96 -42.83 85 75
NA 12:00:00 TS 20.33 -43.50 85 85 75
NA 15:00:00 TS 20.76 -44.12 85 75
NA 18:00:00 TS 21.23 -44.73 85 85 75
NA 21:00:00 TS 21.71 -45.38 85 75
NA 1897-09-05 00:00:00 TS 22.20 -46.03 85 85 75
NA 03:00:00 TS 22.68 -46.66 85 77
NA 06:00:00 TS 23.17 -47.27 85 85 80
NA 09:00:00 TS 23.67 -47.89 85 82
NA 12:00:00 TS 24.20 -48.47 85 85 85
NA 15:00:00 TS 24.74 -48.98 85 85
NA 18:00:00 TS 25.30 -49.37 85 85 85
NA 21:00:00 TS 25.86 -49.62 85 85
NA 1897-09-06 00:00:00 TS 26.43 -49.73 85 85 85
NA 03:00:00 TS 27.04 -49.80 85 85
NA 06:00:00 TS 27.63 -49.77 85 85 85
NA 09:00:00 TS 28.19 -49.68 85 85
NA 12:00:00 TS 28.70 -49.53 85 85 85
NA 15:00:00 TS 29.19 -49.35 85 85
NA 18:00:00 TS 29.63 -49.10 85 85 85
NA 21:00:00 TS 30.04 -48.79 85 85
NA 1897-09-07 00:00:00 TS 30.43 -48.47 85 85 85
NA 03:00:00 TS 30.86 -48.20 85 85
NA 06:00:00 TS 31.30 -47.93 85 85 85
NA 09:00:00 TS 31.70 -47.66 85 87
NA 12:00:00 TS 32.13 -47.30 85 85 90 968
NA 15:00:00 TS 32.66 -46.76 85 87
NA 18:00:00 TS 33.23 -46.13 85 85 85
NA 21:00:00 TS 33.82 -45.54 85 85
NA 1897-09-08 00:00:00 TS 34.43 -44.90 85 85 85
NA 03:00:00 TS 35.04 -44.22 85 85
NA 06:00:00 TS 35.67 -43.47 85 85 85
NA 09:00:00 TS 36.29 -42.62 85 85
NA 12:00:00 TS 37.00 -41.67 85 85 85 968
NA 15:00:00 TS 37.85 -40.63 85 82
NA 18:00:00 TS 38.80 -39.47 85 85 80
NA 21:00:00 TS 39.79 -38.18 85 77
NA 1897-09-09 00:00:00 TS 40.83 -36.83 85 85 75
NA 03:00:00 TS 41.91 -35.53 82 72
NA 06:00:00 TS 42.97 -34.27 80 80 70
NA 09:00:00 TS 43.93 -33.05 80 67
NA 12:00:00 MX 44.80 -31.87 80 80 65
NA 15:00:00 MX 45.58 -30.66 77 65
NA 18:00:00 MX 46.30 -29.47 75 75 65
NA 21:00:00 MX 47.02 -28.26 70 62
NA 1897-09-10 00:00:00 ET 47.70 -27.07 65 65 60
NA 03:00:00 ET 48.35 -25.86 60 57
NA 06:00:00 ET 48.97 -24.67 55 55 55
NA 09:00:00 ET 49.53 -23.46 52 52
NA 12:00:00 ET 50.10 -22.27 50 50 50
NA 15:00:00 ET 50.72 -21.07 50 50
NA 18:00:00 ET 51.37 -19.87 50 50 50

Source Information

Agency Information
USA hurdat2-1851-2019-042820.txt:Line=8673:UNNAMED
TOKYO
CMA
HKO
NEWDELHI
REUNION
BOM
NADI
WELLINGTON
DS824
TD9636
TD9635
NEUMANN
MLC

All available IBTrACS Data

SEASON BASIN SUBBASIN ISO_TIME_________ NATURE LAT LON WMO WIND WMO AGENCY DIST2LAND LANDFALL IFLAG USA AGENCY USA ATCF_ID USA LAT USA LON USA STATUS USA WIND USA SSHS MLC LAT MLC LON MLC CLASS MLC WIND MLC PRES STORM SPEED STORM DIR
Year degrees north degrees east kts km km degrees north degrees east kts 1 degrees north degrees east kts mb kts degrees
1897 NA NA 1897-08-30 12:00:00 TS 12.50 -20.00 347 347 _____________O -1 12.50 -20.00 TD 25 11 292
1897 NA NA 15:00:00 TS 12.70 -20.51 394 394 _____________P -1 12.70 -20.51 TD 25 11 292
1897 NA NA 18:00:00 TS 12.90 -21.00 428 428 _____________O -1 12.90 -21.00 TD 25 10 294
1897 NA NA 21:00:00 TS 13.11 -21.46 467 467 _____________P -1 13.11 -21.46 TD 27 10 295
1897 NA NA 1897-08-31 00:00:00 TS 13.30 -21.90 500 500 _____________O -1 13.30 -21.90 TD 30 9 293
1897 NA NA 03:00:00 TS 13.46 -22.34 535 535 _____________P -1 13.46 -22.34 TD 30 13 289
1897 NA NA 06:00:00 TS 13.73 -23.20 35 hurdat_atl 624 624 O____________O hurdat_atl AL011897 14.00 -24.00 TS 35 0 13.60 -22.80 TD 30 15 284
1897 NA NA 09:00:00 TS 13.84 -23.89 697 697 P____________P AL011897 13.99 -24.49 TS 35 0 13.69 -23.28 TD 30 13 278
1897 NA NA 12:00:00 TS 13.92 -24.52 35 hurdat_atl 759 759 O____________O hurdat_atl AL011897 14.00 -25.00 TS 35 0 13.80 -23.80 TD 30 12 279
1897 NA NA 15:00:00 TS 14.03 -25.15 833 833 P____________P AL011897 14.04 -25.53 TS 35 0 13.99 -24.38 TD 32 12 280
1897 NA NA 18:00:00 TS 14.13 -25.73 35 hurdat_atl 886 886 O____________O hurdat_atl AL011897 14.10 -26.10 TS 35 0 14.20 -25.00 TS 35 12 280
1897 NA NA 21:00:00 TS 14.22 -26.33 949 949 P____________P AL011897 14.15 -26.70 TS 35 0 14.36 -25.60 TS 37 12 278
1897 NA NA 1897-09-01 00:00:00 TS 14.30 -26.93 35 hurdat_atl 1013 1013 O____________O hurdat_atl AL011897 14.20 -27.30 TS 35 0 14.50 -26.20 TS 40 12 278
1897 NA NA 03:00:00 TS 14.38 -27.51 1077 1077 P____________P AL011897 14.24 -27.86 TS 37 0 14.64 -26.81 TS 45 11 279
1897 NA NA 06:00:00 TS 14.47 -28.07 40 hurdat_atl 1141 1141 O____________O hurdat_atl AL011897 14.30 -28.40 TS 40 0 14.80 -27.40 TS 50 999 11 281
1897 NA NA 09:00:00 TS 14.59 -28.62 1194 1194 P____________P AL011897 14.39 -28.95 TS 47 0 14.99 -27.95 TS 50 11 284
1897 NA NA 12:00:00 TS 14.73 -29.17 55 hurdat_atl 1258 1258 O____________O hurdat_atl AL011897 14.50 -29.50 TS 55 0 15.20 -28.50 TS 50 11 284
1897 NA NA 15:00:00 TS 14.86 -29.73 1312 1312 P____________P AL011897 14.59 -30.05 TS 60 0 15.40 -29.10 TS 52 11 284
1897 NA NA 18:00:00 TS 15.00 -30.30 65 hurdat_atl 1376 1376 O____________O hurdat_atl AL011897 14.70 -30.60 HU 65 1 15.60 -29.70 TS 55 11 286
1897 NA NA 21:00:00 TS 15.16 -30.85 1441 1441 P____________P AL011897 14.84 -31.15 HU 67 1 15.80 -30.26 TS 55 11 287
1897 NA NA 1897-09-02 00:00:00 TS 15.33 -31.40 70 hurdat_atl 1494 1494 O____________O hurdat_atl AL011897 15.00 -31.70 HU 70 1 16.00 -30.80 TS 55 11 288
1897 NA NA 03:00:00 TS 15.50 -31.95 1559 1559 P____________P AL011897 15.15 -32.25 HU 72 1 16.21 -31.35 TS 57 11 287
1897 NA NA 06:00:00 TS 15.67 -32.50 75 hurdat_atl 1613 1613 O____________O hurdat_atl AL011897 15.30 -32.80 HU 75 1 16.40 -31.90 TS 60 11 286
1897 NA NA 09:00:00 TS 15.81 -33.05 1667 1667 P____________P AL011897 15.44 -33.35 HU 75 1 16.55 -32.44 TS 60 11 286
1897 NA NA 12:00:00 TS 15.97 -33.60 75 hurdat_atl 1732 1732 O____________O hurdat_atl AL011897 15.60 -33.90 HU 75 1 16.70 -33.00 TS 60 11 288
1897 NA NA 15:00:00 TS 16.16 -34.17 1797 1797 P____________P AL011897 15.79 -34.45 HU 77 1 16.89 -33.60 TS 62 12 290
1897 NA NA 18:00:00 TS 16.37 -34.73 80 hurdat_atl 1852 1852 O____________O hurdat_atl AL011897 16.00 -35.00 HU 80 1 17.10 -34.20 HU 65 11 290
1897 NA NA 21:00:00 TS 16.56 -35.29 1917 1917 P____________P AL011897 16.19 -35.55 HU 80 1 17.29 -34.76 HU 67 11 291
1897 NA NA 1897-09-03 00:00:00 TS 16.77 -35.83 80 hurdat_atl 1972 1972 O____________O hurdat_atl AL011897 16.40 -36.10 HU 80 1 17.50 -35.30 HU 70 11 293
1897 NA NA 03:00:00 TS 17.01 -36.38 2037 2037 P____________P AL011897 16.63 -36.65 HU 82 1 17.75 -35.85 HU 72 12 295
1897 NA NA 06:00:00 TS 17.27 -36.93 85 hurdat_atl 2093 2093 O____________O hurdat_atl AL011897 16.90 -37.20 HU 85 2 18.00 -36.40 HU 75 12 297
1897 NA NA 09:00:00 TS 17.53 -37.47 2108 2093 P____________P AL011897 17.19 -37.74 HU 85 2 18.20 -36.92 HU 75 12 297
1897 NA NA 12:00:00 TS 17.80 -38.03 85 hurdat_atl 2093 2065 O____________O hurdat_atl AL011897 17.50 -38.30 HU 85 2 18.40 -37.50 HU 75 13 296
1897 NA NA 15:00:00 TS 18.08 -38.66 2066 2040 P____________P AL011897 17.79 -38.89 HU 85 2 18.64 -38.22 HU 75 14 295
1897 NA NA 18:00:00 TS 18.37 -39.33 85 hurdat_atl 2048 2025 O____________O hurdat_atl AL011897 18.10 -39.50 HU 85 2 18.90 -39.00 HU 75 14 295
1897 NA NA 21:00:00 TS 18.68 -40.01 2027 2006 P____________P AL011897 18.44 -40.14 HU 85 2 19.15 -39.75 HU 75 14 296
1897 NA NA 1897-09-04 00:00:00 TS 19.00 -40.70 85 hurdat_atl 2008 1989 O____________O hurdat_atl AL011897 18.80 -40.80 HU 85 2 19.40 -40.50 HU 75 15 295
1897 NA NA 03:00:00 TS 19.31 -41.42 1991 1973 P____________P AL011897 19.14 -41.50 HU 85 2 19.65 -41.25 HU 75 15 295
1897 NA NA 06:00:00 TS 19.63 -42.13 85 hurdat_atl 1973 1958 O____________O hurdat_atl AL011897 19.50 -42.20 HU 85 2 19.90 -42.00 HU 75 15 296
1897 NA NA 09:00:00 TS 19.96 -42.83 1967 1952 P____________P AL011897 19.89 -42.86 HU 85 2 20.11 -42.78 HU 75 15 299
1897 NA NA 12:00:00 TS 20.33 -43.50 85 hurdat_atl 1956 1955 O____________O hurdat_atl AL011897 20.30 -43.50 HU 85 2 20.40 -43.50 HU 75 15 303
1897 NA NA 15:00:00 TS 20.76 -44.12 1973 1967 P____________P AL011897 20.69 -44.14 HU 85 2 20.90 -44.08 HU 75 15 308
1897 NA NA 18:00:00 TS 21.23 -44.73 85 hurdat_atl 1982 1982 O____________O hurdat_atl AL011897 21.10 -44.80 HU 85 2 21.50 -44.60 HU 75 15 309
1897 NA NA 21:00:00 TS 21.71 -45.38 2001 2001 P____________P AL011897 21.54 -45.50 HU 85 2 22.05 -45.15 HU 75 16 309
1897 NA NA 1897-09-05 00:00:00 TS 22.20 -46.03 85 hurdat_atl 2026 2021 O____________O hurdat_atl AL011897 22.00 -46.20 HU 85 2 22.60 -45.70 HU 75 15 309
1897 NA NA 03:00:00 TS 22.68 -46.66 2023 1982 P____________P AL011897 22.44 -46.86 HU 85 2 23.15 -46.26 HU 77 15 310
1897 NA NA 06:00:00 TS 23.17 -47.27 85 hurdat_atl 1974 1925 O____________O hurdat_atl AL011897 22.90 -47.50 HU 85 2 23.70 -46.80 HU 80 15 311
1897 NA NA 09:00:00 TS 23.67 -47.89 1927 1890 P____________P AL011897 23.38 -48.17 HU 85 2 24.25 -47.33 HU 82 15 313
1897 NA NA 12:00:00 TS 24.20 -48.47 85 hurdat_atl 1884 1853 O____________O hurdat_atl AL011897 23.90 -48.80 HU 85 2 24.80 -47.80 HU 85 15 317
1897 NA NA 15:00:00 TS 24.74 -48.98 1853 1840 P____________P AL011897 24.43 -49.37 HU 85 2 25.36 -48.20 HU 85 14 323
1897 NA NA 18:00:00 TS 25.30 -49.37 85 hurdat_atl 1838 1837 O____________O hurdat_atl AL011897 25.00 -49.80 HU 85 2 25.90 -48.50 HU 85 13 333
1897 NA NA 21:00:00 TS 25.86 -49.62 1846 1841 P____________P AL011897 25.58 -50.08 HU 85 2 26.41 -48.70 HU 85 12 344
1897 NA NA 1897-09-06 00:00:00 TS 26.43 -49.73 85 hurdat_atl 1860 1860 O____________O hurdat_atl AL011897 26.20 -50.20 HU 85 2 26.90 -48.80 HU 85 12 352
1897 NA NA 03:00:00 TS 27.04 -49.80 1881 1881 P____________P AL011897 26.86 -50.25 HU 85 2 27.40 -48.88 HU 85 12 358
1897 NA NA 06:00:00 TS 27.63 -49.77 85 hurdat_atl 1912 1912 O____________O hurdat_atl AL011897 27.50 -50.20 HU 85 2 27.90 -48.90 HU 85 12 5
1897 NA NA 09:00:00 TS 28.19 -49.68 1954 1954 P____________P AL011897 28.07 -50.09 HU 85 2 28.41 -48.88 HU 85 11 11
1897 NA NA 12:00:00 TS 28.70 -49.53 85 hurdat_atl 2000 1965 O____________O hurdat_atl AL011897 28.60 -49.90 HU 85 2 28.90 -48.80 HU 85 10 17
1897 NA NA 15:00:00 TS 29.19 -49.35 1966 1925 P____________P AL011897 29.12 -49.68 HU 85 2 29.31 -48.68 HU 85 10 22
1897 NA NA 18:00:00 TS 29.63 -49.10 85 hurdat_atl 1925 1885 O____________O hurdat_atl AL011897 29.60 -49.40 HU 85 2 29.70 -48.50 HU 85 10 30
1897 NA NA 21:00:00 TS 30.04 -48.79 1886 1848 P____________P AL011897 30.01 -49.06 HU 85 2 30.10 -48.24 HU 85 10 34
1897 NA NA 1897-09-07 00:00:00 TS 30.43 -48.47 85 hurdat_atl 1848 1808 O____________O hurdat_atl AL011897 30.40 -48.70 HU 85 2 30.50 -48.00 HU 85 10 32
1897 NA NA 03:00:00 TS 30.86 -48.20 1799 1760 P____________P AL011897 30.84 -48.36 HU 85 2 30.91 -47.88 HU 85 10 28
1897 NA NA 06:00:00 TS 31.30 -47.93 85 hurdat_atl 1762 1723 O____________O hurdat_atl AL011897 31.30 -48.00 HU 85 2 31.30 -47.80 HU 85 10 29
1897 NA NA 09:00:00 TS 31.70 -47.66 1723 1687 P____________P AL011897 31.74 -47.61 HU 85 2 31.61 -47.77 HU 87 10 33
1897 NA NA 12:00:00 TS 32.13 -47.30 85 hurdat_atl 1690 1647 O____________O hurdat_atl AL011897 32.20 -47.20 HU 85 2 32.00 -47.50 HU 90 968 12 39
1897 NA NA 15:00:00 TS 32.66 -46.76 1639 1604 P____________P AL011897 32.68 -46.81 HU 85 2 32.61 -46.67 HU 87 15 42
1897 NA NA 18:00:00 TS 33.23 -46.13 85 hurdat_atl 1607 1561 O____________O hurdat_atl AL011897 33.20 -46.40 HU 85 2 33.30 -45.60 HU 85 16 41
1897 NA NA 21:00:00 TS 33.82 -45.54 1564 1521 P____________P AL011897 33.78 -45.98 HU 85 2 33.90 -44.65 HU 85 16 41
1897 NA NA 1897-09-08 00:00:00 TS 34.43 -44.90 85 hurdat_atl 1525 1488 O____________O hurdat_atl AL011897 34.40 -45.50 HU 85 2 34.50 -43.70 HU 85 16 42
1897 NA NA 03:00:00 TS 35.04 -44.22 1493 1460 P____________P AL011897 34.98 -44.97 HU 85 2 35.15 -42.74 HU 85 17 44
1897 NA NA 06:00:00 TS 35.67 -43.47 85 hurdat_atl 1455 1437 O____________O hurdat_atl AL011897 35.60 -44.30 HU 85 2 35.80 -41.80 HU 85 18 46
1897 NA NA 09:00:00 TS 36.29 -42.62 1442 1426 P____________P AL011897 36.26 -43.48 HU 85 2 36.35 -40.90 HU 85 20 47
1897 NA NA 12:00:00 TS 37.00 -41.67 85 hurdat_atl 1426 1414 O____________O hurdat_atl AL011897 37.00 -42.50 HU 85 2 37.00 -40.00 HU 85 968 22 46
1897 NA NA 15:00:00 TS 37.85 -40.63 1420 1406 P____________P AL011897 37.80 -41.43 HU 85 2 37.95 -39.02 HU 82 25 44
1897 NA NA 18:00:00 TS 38.80 -39.47 85 hurdat_atl 1409 1406 O____________O hurdat_atl AL011897 38.70 -40.20 HU 85 2 39.00 -38.00 HU 80 27 44
1897 NA NA 21:00:00 TS 39.79 -38.18 1421 1420 P____________P AL011897 39.71 -38.79 HU 85 2 39.95 -36.95 HU 77 29 45
1897 NA NA 1897-09-09 00:00:00 TS 40.83 -36.83 85 hurdat_atl 1453 1447 O____________O hurdat_atl AL011897 40.80 -37.30 HU 85 2 40.90 -35.90 HU 75 29 43
1897 NA NA 03:00:00 TS 41.91 -35.53 1479 1473 P____________P AL011897 41.92 -35.88 HU 82 1 41.90 -34.84 HU 72 29 42
1897 NA NA 06:00:00 TS 42.97 -34.27 80 hurdat_atl 1507 1507 O____________O hurdat_atl AL011897 43.00 -34.50 HU 80 1 42.90 -33.80 HU 70 27 42
1897 NA NA 09:00:00 TS 43.93 -33.05 1555 1555 P____________P AL011897 43.95 -33.17 HU 80 1 43.89 -32.80 HU 67 25 43
1897 NA NA 12:00:00 MX 44.80 -31.87 80 hurdat_atl 1610 1610 O____________O hurdat_atl AL011897 44.80 -31.90 HU 80 1 44.80 -31.80 EX 65 24 46
1897 NA NA 15:00:00 MX 45.58 -30.66 1627 1508 P____________P AL011897 45.58 -30.64 HU 77 1 45.59 -30.71 EX 65 22 48
1897 NA NA 18:00:00 MX 46.30 -29.47 75 hurdat_atl 1508 1390 O____________O hurdat_atl AL011897 46.30 -29.40 HU 75 1 46.30 -29.60 EX 65 22 49
1897 NA NA 21:00:00 MX 47.02 -28.26 1390 1274 P____________P AL011897 47.02 -28.15 HU 70 1 47.01 -28.50 EX 62 21 49
1897 NA NA 1897-09-10 00:00:00 ET 47.70 -27.07 65 hurdat_atl 1274 1165 O____________O hurdat_atl AL011897 47.70 -26.90 EX 65 -4 47.70 -27.40 EX 60 21 50
1897 NA NA 03:00:00 ET 48.35 -25.86 1160 1057 P____________P AL011897 48.33 -25.65 EX 60 -4 48.40 -26.30 EX 57 20 52
1897 NA NA 06:00:00 ET 48.97 -24.67 55 hurdat_atl 1053 952 O____________O hurdat_atl AL011897 48.90 -24.40 EX 55 -4 49.10 -25.20 EX 55 20 53
1897 NA NA 09:00:00 ET 49.53 -23.46 952 848 P____________P AL011897 49.40 -23.15 EX 52 -4 49.80 -24.10 EX 52 19 54
1897 NA NA 12:00:00 ET 50.10 -22.27 50 hurdat_atl 848 747 O____________O hurdat_atl AL011897 49.90 -21.90 EX 50 -4 50.50 -23.00 EX 50 19 52
1897 NA NA 15:00:00 ET 50.72 -21.07 747 650 P____________P AL011897 50.48 -20.66 EX 50 -4 51.20 -21.91 EX 50 20 50
1897 NA NA 18:00:00 ET 51.37 -19.87 50 hurdat_atl 647 O____________O hurdat_atl AL011897 51.10 -19.40 EX 50 -4 51.90 -20.80 EX 50 20 49